Time;durP1;ratioP1;P1;durP2;ratioP2;P2;SDS_P1;SDS_P2;PMS_P1;PMS_P2;Temp;Humidity;BMP_temperature;BMP_pressure;BME280_temperature;BME280_humidity;BME280_pressure;Samples;Min_cycle;Max_cycle;Signal;HPM_P1;HPM_P2
2021/08/06 00:01:29;;;;;;;29.23;16.05;;;;;;;29.69;100.00;99797.22;4901210;29;20539;-69
2021/08/06 00:04:15;;;;;;;34.78;15.85;;;;;;;29.39;100.00;99802.44;4899959;29;20086;-71
2021/08/06 00:07:01;;;;;;;28.63;17.33;;;;;;;29.23;100.00;99803.28;4900499;29;20031;-69
2021/08/06 00:09:47;;;;;;;25.17;15.75;;;;;;;29.28;100.00;99816.25;4900290;29;20450;-70
2021/08/06 00:12:33;;;;;;;28.95;14.07;;;;;;;29.01;100.00;99819.25;4900355;29;20537;-69
2021/08/06 00:15:19;;;;;;;22.98;13.48;;;;;;;29.06;100.00;99825.84;4900285;29;20029;-69
2021/08/06 00:18:04;;;;;;;22.95;12.68;;;;;;;29.26;100.00;99821.84;4900594;29;20068;-69
2021/08/06 00:20:51;;;;;;;28.63;12.38;;;;;;;29.29;100.00;99821.47;4899741;29;20047;-70
2021/08/06 00:23:37;;;;;;;24.17;12.45;;;;;;;29.30;100.00;99836.69;4900965;29;20088;-70
2021/08/06 00:26:23;;;;;;;21.90;11.07;;;;;;;29.41;100.00;99832.81;4899857;29;20024;-69
2021/08/06 00:29:09;;;;;;;20.35;11.90;;;;;;;29.38;100.00;99823.19;4900499;29;20028;-70
2021/08/06 00:31:55;;;;;;;21.08;11.38;;;;;;;29.39;100.00;99832.13;4899617;29;20136;-70
2021/08/06 00:34:40;;;;;;;21.27;11.95;;;;;;;29.22;100.00;99827.72;4900480;29;20028;-70
2021/08/06 00:37:26;;;;;;;22.00;11.82;;;;;;;28.92;100.00;99845.31;4900130;29;20028;-71
2021/08/06 00:40:12;;;;;;;20.45;11.48;;;;;;;28.99;100.00;99845.50;4899924;29;20100;-71
2021/08/06 00:42:58;;;;;;;23.55;12.00;;;;;;;28.82;100.00;99841.94;4899999;29;20028;-71
2021/08/06 00:45:45;;;;;;;24.08;11.32;;;;;;;28.74;100.00;99831.13;4899860;29;20044;-71
2021/08/06 00:48:31;;;;;;;23.48;11.43;;;;;;;28.71;100.00;99819.78;4899300;29;20474;-71
2021/08/06 00:51:17;;;;;;;19.27;11.63;;;;;;;28.78;100.00;99824.38;4899781;29;20108;-71
2021/08/06 00:54:03;;;;;;;20.50;12.07;;;;;;;28.62;100.00;99827.03;4899598;29;20028;-71
2021/08/06 00:56:49;;;;;;;24.10;11.88;;;;;;;28.81;100.00;99831.31;4899846;29;20096;-71
2021/08/06 00:59:34;;;;;;;18.73;11.68;;;;;;;28.70;100.00;99820.81;4900562;29;20032;-70
2021/08/06 01:02:25;;;;;;;22.42;12.00;;;;;;;28.60;100.00;99817.41;4900179;29;20036;-70
2021/08/06 01:05:21;;;;;;;26.23;12.15;;;;;;;28.59;100.00;99819.25;4900640;29;20113;-71
2021/08/06 01:08:11;;;;;;;21.88;11.10;;;;;;;28.72;100.00;99821.50;4899404;29;20044;-72
2021/08/06 01:11:00;;;;;;;19.92;11.68;;;;;;;28.73;100.00;99817.78;4899941;29;20066;-70
2021/08/06 01:13:52;;;;;;;23.95;12.23;;;;;;;28.68;100.00;99814.75;4900321;29;20382;-70
2021/08/06 01:16:38;;;;;;;20.80;11.20;;;;;;;28.79;100.00;99809.03;4899735;29;20031;-71
2021/08/06 01:19:52;;;;;;;22.25;12.05;;;;;;;28.43;100.00;99813.78;4899688;29;20029;-71
2021/08/06 01:22:50;;;;;;;24.08;11.90;;;;;;;28.62;100.00;99812.69;4899853;29;20339;-71
2021/08/06 01:25:48;;;;;;;21.90;12.10;;;;;;;28.67;100.00;99827.38;4899556;29;20032;-71
2021/08/06 01:28:40;;;;;;;28.17;12.52;;;;;;;28.63;100.00;99815.22;4899671;29;20171;-71
2021/08/06 01:31:28;;;;;;;28.75;11.80;;;;;;;28.68;100.00;99823.66;4899832;29;20071;-71
2021/08/06 01:34:14;;;;;;;25.05;12.27;;;;;;;28.50;100.00;99828.31;4898476;29;20025;-71
2021/08/06 01:36:59;;;;;;;22.33;11.40;;;;;;;28.51;100.00;99821.06;4899855;29;20025;-71
2021/08/06 01:39:45;;;;;;;26.60;11.77;;;;;;;28.52;100.00;99825.47;4898867;29;20028;-70
2021/08/06 01:42:46;;;;;;;19.88;11.13;;;;;;;28.45;100.00;99830.63;4899696;29;20033;-72
2021/08/06 01:45:37;;;;;;;19.55;11.10;;;;;;;28.47;100.00;99836.72;4899119;29;20028;-71
2021/08/06 01:48:29;;;;;;;18.35;11.25;;;;;;;28.34;100.00;99828.22;4898773;29;20131;-70
2021/08/06 01:51:16;;;;;;;18.77;10.48;;;;;;;27.89;100.00;99840.22;4898489;29;20028;-70
2021/08/06 01:54:03;;;;;;;25.75;11.32;;;;;;;28.04;100.00;99830.56;4899179;29;20067;-70
2021/08/06 01:56:50;;;;;;;19.75;10.60;;;;;;;28.19;100.00;99819.03;4899151;29;20374;-70
2021/08/06 01:59:38;;;;;;;19.00;11.07;;;;;;;28.12;100.00;99815.28;4899607;29;20028;-70
2021/08/06 02:02:24;;;;;;;16.95;11.15;;;;;;;27.94;100.00;99806.44;4899215;29;20049;-70
2021/08/06 02:05:10;;;;;;;19.17;11.50;;;;;;;27.74;100.00;99815.69;4899568;29;20422;-70
2021/08/06 02:07:57;;;;;;;25.30;12.55;;;;;;;27.64;100.00;99833.75;4899043;29;20057;-70
2021/08/06 02:10:43;;;;;;;22.55;12.50;;;;;;;27.97;100.00;99834.88;4900370;29;20455;-70
2021/08/06 02:13:29;;;;;;;20.30;12.07;;;;;;;27.85;100.00;99839.69;4905955;29;20055;-69
2021/08/06 02:16:16;;;;;;;17.15;11.50;;;;;;;27.94;100.00;99836.03;4897837;29;20071;-70
2021/08/06 02:19:02;;;;;;;24.58;12.40;;;;;;;28.21;100.00;99857.41;4900109;29;20032;-69
2021/08/06 02:21:51;;;;;;;26.95;11.45;;;;;;;27.45;100.00;99883.22;4901819;29;20430;-70
2021/08/06 02:24:41;;;;;;;20.52;11.63;;;;;;;27.91;100.00;99881.28;4902987;29;20028;-70
2021/08/06 02:27:28;;;;;;;23.52;10.60;;;;;;;27.79;100.00;99875.28;4902583;29;20024;-69
2021/08/06 02:30:16;;;;;;;19.90;10.68;;;;;;;27.28;100.00;99878.66;4902832;29;20052;-70
2021/08/06 02:33:02;;;;;;;23.63;11.25;;;;;;;27.40;100.00;99874.75;4902667;29;20095;-70
2021/08/06 02:35:48;;;;;;;21.40;11.23;;;;;;;27.81;100.00;99884.06;4903010;29;20477;-70
2021/08/06 02:38:35;;;;;;;24.00;10.57;;;;;;;27.78;100.00;99899.66;4903776;29;20037;-70
2021/08/06 02:41:20;;;;;;;18.73;10.68;;;;;;;27.32;100.00;99944.63;4905670;29;20099;-70
2021/08/06 02:44:11;;;;;;;20.55;10.45;;;;;;;27.37;100.00;99984.53;4903413;29;20028;-69
2021/08/06 02:46:56;;;;;;;21.13;10.02;;;;;;;27.34;100.00;99992.91;4901050;29;20028;-70
2021/08/06 02:49:42;;;;;;;32.42;11.15;;;;;;;26.95;100.00;100007.50;4902501;29;20382;-69
2021/08/06 02:52:28;;;;;;;29.17;11.98;;;;;;;26.95;100.00;99964.47;4902054;29;20021;-69
2021/08/06 02:55:14;;;;;;;22.92;11.25;;;;;;;26.34;100.00;99913.06;4902193;29;20420;-69
2021/08/06 02:58:00;;;;;;;27.65;11.85;;;;;;;25.88;100.00;99872.69;4901228;29;20024;-69
2021/08/06 03:00:45;;;;;;;21.52;12.10;;;;;;;25.63;100.00;99872.47;4902137;29;20033;-68
2021/08/06 03:03:31;;;;;;;22.02;12.15;;;;;;;25.47;100.00;99864.13;4901685;29;20032;-69
2021/08/06 03:06:17;;;;;;;21.17;11.77;;;;;;;25.27;100.00;99795.34;4901789;29;20419;-68
2021/08/06 03:09:02;;;;;;;21.50;12.02;;;;;;;25.19;100.00;99729.00;4901711;29;20373;-69
2021/08/06 03:11:48;;;;;;;20.88;12.18;;;;;;;25.03;100.00;99739.47;4901628;29;20033;-68
2021/08/06 03:14:35;;;;;;;18.48;11.32;;;;;;;25.17;100.00;99727.47;4901919;29;20066;-69
2021/08/06 03:17:21;;;;;;;26.60;12.98;;;;;;;24.68;100.00;99660.63;4901832;29;20040;-69
2021/08/06 03:20:12;;;;;;;30.83;13.55;;;;;;;24.84;100.00;99516.22;4900992;29;20103;-69
2021/08/06 03:22:58;;;;;;;23.83;13.57;;;;;;;24.71;100.00;99604.94;4902147;29;20033;-69
2021/08/06 03:25:44;;;;;;;28.05;15.52;;;;;;;24.92;100.00;99663.72;4900846;29;20461;-69
2021/08/06 03:28:30;;;;;;;28.52;15.88;;;;;;;25.31;100.00;99737.81;4901351;29;20111;-69
2021/08/06 03:31:15;;;;;;;25.55;15.85;;;;;;;25.50;100.00;99773.47;4900595;29;20024;-69
2021/08/06 03:34:01;;;;;;;30.75;16.15;;;;;;;25.45;100.00;99805.25;4901165;29;20397;-69
2021/08/06 03:36:47;;;;;;;30.15;15.40;;;;;;;25.70;100.00;99817.22;4901173;29;20025;-69
2021/08/06 03:39:33;;;;;;;29.38;18.67;;;;;;;25.86;100.00;99817.47;4900587;29;20477;-69
2021/08/06 03:42:18;;;;;;;32.13;17.27;;;;;;;25.97;100.00;99817.31;4900685;29;20040;-69
2021/08/06 03:45:05;;;;;;;29.58;16.50;;;;;;;25.91;100.00;99801.75;4900194;29;20351;-70
2021/08/06 03:47:51;;;;;;;23.05;13.82;;;;;;;26.03;100.00;99801.47;4901136;29;20080;-69
2021/08/06 03:50:37;;;;;;;21.38;14.32;;;;;;;26.25;100.00;99779.66;4901175;29;20029;-69
2021/08/06 03:53:23;;;;;;;23.35;14.00;;;;;;;25.99;100.00;99783.13;4901289;29;20028;-69
2021/08/06 03:56:09;;;;;;;29.98;14.13;;;;;;;25.95;100.00;99784.41;4901387;29;20353;-69
2021/08/06 03:58:55;;;;;;;28.60;14.85;;;;;;;26.35;100.00;99782.25;4900959;29;20025;-69
2021/08/06 04:01:40;;;;;;;26.27;14.48;;;;;;;26.26;100.00;99797.44;4901036;29;20434;-69
2021/08/06 04:04:26;;;;;;;28.17;13.10;;;;;;;26.47;100.00;99851.78;4900536;29;20032;-70
2021/08/06 04:07:12;;;;;;;24.45;13.80;;;;;;;26.44;100.00;99849.38;4901111;29;20123;-69
2021/08/06 04:09:57;;;;;;;24.23;12.88;;;;;;;26.37;100.00;99840.22;4900465;29;20108;-69
2021/08/06 04:12:46;;;;;;;27.90;13.02;;;;;;;26.48;100.00;99828.47;4900986;29;20103;-68
2021/08/06 04:15:32;;;;;;;27.13;12.13;;;;;;;26.22;100.00;99839.03;4899658;29;20028;-69
2021/08/06 04:18:17;;;;;;;23.38;13.02;;;;;;;26.67;100.00;99842.66;4900606;29;20365;-69
2021/08/06 04:21:03;;;;;;;24.83;12.90;;;;;;;26.48;100.00;99850.78;4900155;29;20028;-69
2021/08/06 04:23:49;;;;;;;18.25;12.50;;;;;;;26.83;100.00;99850.91;4900628;29;20032;-69
2021/08/06 04:26:35;;;;;;;19.85;13.25;;;;;;;27.20;100.00;99859.75;4900168;29;20430;-69
2021/08/06 04:29:20;;;;;;;25.25;11.88;;;;;;;27.14;100.00;99848.75;4900390;29;20060;-69
2021/08/06 04:32:06;;;;;;;22.05;12.63;;;;;;;27.09;100.00;99851.03;4900264;29;20091;-70
2021/08/06 04:34:52;;;;;;;23.88;12.45;;;;;;;27.25;100.00;99856.63;4899277;29;20032;-69
2021/08/06 04:37:49;;;;;;;21.05;13.57;;;;;;;27.22;100.00;99851.53;4900529;29;20032;-69
2021/08/06 04:40:36;;;;;;;24.73;13.05;;;;;;;27.28;100.00;99861.69;4899699;29;20036;-69
2021/08/06 04:43:22;;;;;;;27.55;12.93;;;;;;;27.02;100.00;99875.00;4899527;29;20107;-69
2021/08/06 04:46:07;;;;;;;28.25;13.00;;;;;;;26.76;100.00;99879.38;4899458;29;20026;-69
2021/08/06 04:48:53;;;;;;;24.92;12.75;;;;;;;26.89;100.00;99887.94;4898980;29;20136;-69
2021/08/06 04:51:39;;;;;;;28.58;11.93;;;;;;;26.44;100.00;99884.31;4899602;29;20028;-70
2021/08/06 04:54:25;;;;;;;20.90;12.75;;;;;;;26.79;100.00;99883.63;4899332;29;20041;-69
2021/08/06 04:57:11;;;;;;;21.73;11.82;;;;;;;26.82;100.00;99899.44;4899607;29;20028;-69
2021/08/06 04:59:56;;;;;;;24.25;12.57;;;;;;;27.32;100.00;99895.34;4900044;29;20099;-70
2021/08/06 05:02:42;;;;;;;19.33;11.82;;;;;;;27.40;100.00;99898.13;4899735;29;20043;-69
2021/08/06 05:05:28;;;;;;;23.17;11.52;;;;;;;27.46;100.00;99902.91;4899878;29;20032;-69
2021/08/06 05:08:13;;;;;;;19.58;12.32;;;;;;;26.85;100.00;99907.22;4899783;29;20024;-69
2021/08/06 05:10:59;;;;;;;22.92;11.55;;;;;;;26.98;100.00;99895.13;4898136;29;20020;-70
2021/08/06 05:13:45;;;;;;;23.77;11.48;;;;;;;27.06;100.00;99889.00;4900119;29;20103;-69
2021/08/06 05:16:31;;;;;;;20.42;11.45;;;;;;;27.45;100.00;99920.88;4899324;29;20350;-69
2021/08/06 05:19:17;;;;;;;23.00;10.80;;;;;;;27.53;100.00;99918.28;4899060;29;20528;-69
2021/08/06 05:22:03;;;;;;;16.38;11.35;;;;;;;27.55;100.00;99909.22;4899098;29;20119;-70
2021/08/06 05:24:49;;;;;;;23.77;11.45;;;;;;;27.57;100.00;99891.06;4899564;29;20079;-69
2021/08/06 05:27:35;;;;;;;23.13;11.77;;;;;;;27.40;100.00;99888.22;4899399;29;20112;-69
2021/08/06 05:30:22;;;;;;;23.02;12.10;;;;;;;27.13;100.00;99916.97;4899568;29;20442;-70
2021/08/06 05:33:08;;;;;;;17.20;10.57;;;;;;;27.41;100.00;99911.41;4899521;29;20043;-70
2021/08/06 05:35:54;;;;;;;18.85;10.95;;;;;;;27.64;100.00;99895.66;4899118;29;20028;-70
2021/08/06 05:38:40;;;;;;;16.40;11.18;;;;;;;27.55;100.00;99901.97;4899347;29;20025;-70
2021/08/06 05:41:25;;;;;;;29.48;11.95;;;;;;;27.65;100.00;99900.06;4898880;29;20343;-70
2021/08/06 05:44:11;;;;;;;22.95;12.00;;;;;;;27.24;100.00;99909.56;4899331;29;20060;-70
2021/08/06 05:46:57;;;;;;;23.70;11.93;;;;;;;27.02;100.00;99901.91;4898142;29;20119;-70
2021/08/06 05:49:42;;;;;;;24.88;12.20;;;;;;;27.18;100.00;99915.53;4899401;29;20115;-70
2021/08/06 05:52:28;;;;;;;21.63;12.30;;;;;;;27.19;100.00;99908.28;4898717;29;20028;-69
2021/08/06 05:55:16;;;;;;;24.75;12.32;;;;;;;27.39;100.00;99908.06;4900210;29;20028;-70
2021/08/06 05:58:01;;;;;;;23.58;13.07;;;;;;;27.42;100.00;99910.44;4902431;29;20493;-70
2021/08/06 06:00:47;;;;;;;21.73;12.65;;;;;;;27.25;100.00;99915.81;4903406;29;20039;-70
2021/08/06 06:03:33;;;;;;;25.30;12.45;;;;;;;27.36;100.00;99920.94;4902866;29;20056;-70
2021/08/06 06:06:19;;;;;;;23.98;12.50;;;;;;;27.62;100.00;99921.91;4903013;29;20389;-70
2021/08/06 06:09:04;;;;;;;25.35;12.80;;;;;;;27.43;100.00;99941.72;4902758;29;20060;-69
2021/08/06 06:11:50;;;;;;;23.55;12.23;;;;;;;27.53;100.00;99944.34;4903240;29;20035;-70
2021/08/06 06:14:36;;;;;;;24.05;12.85;;;;;;;27.56;100.00;99941.34;4902649;29;20060;-69
2021/08/06 06:17:22;;;;;;;21.33;12.90;;;;;;;27.56;100.00;99935.94;4902748;29;20033;-69
2021/08/06 06:20:08;;;;;;;23.88;13.00;;;;;;;27.63;100.00;99947.81;4902486;29;20452;-70
2021/08/06 06:22:54;;;;;;;21.50;12.50;;;;;;;27.56;100.00;99951.28;4902184;29;20442;-70
2021/08/06 06:25:39;;;;;;;24.17;12.57;;;;;;;27.55;100.00;99950.41;4902729;29;20040;-70
2021/08/06 06:28:26;;;;;;;23.98;13.30;;;;;;;27.57;100.00;99959.19;4902486;29;20115;-71
2021/08/06 06:31:12;;;;;;;27.15;13.15;;;;;;;26.78;100.00;99967.94;4902451;29;20025;-70
2021/08/06 06:33:58;;;;;;;20.40;11.80;;;;;;;27.30;100.00;99956.53;4902874;29;20358;-71
2021/08/06 06:36:44;;;;;;;20.83;12.05;;;;;;;27.83;100.00;99952.06;4902569;29;20036;-70
2021/08/06 06:39:32;;;;;;;20.17;11.40;;;;;;;27.74;100.00;99965.56;4901829;29;20472;-70
2021/08/06 06:42:18;;;;;;;20.98;12.23;;;;;;;27.66;100.00;99971.75;4902288;29;20040;-71
2021/08/06 06:45:05;;;;;;;23.33;11.90;;;;;;;28.09;100.00;99965.59;4902005;29;20103;-69
2021/08/06 06:47:52;;;;;;;22.20;11.48;;;;;;;27.48;100.00;99952.03;4901511;29;20362;-69
2021/08/06 06:50:38;;;;;;;19.02;11.07;;;;;;;28.02;100.00;99946.53;4902447;29;20036;-69
2021/08/06 06:53:24;;;;;;;21.35;11.70;;;;;;;28.37;100.00;99949.13;4901617;29;20024;-70
2021/08/06 06:56:10;;;;;;;19.50;11.32;;;;;;;28.55;100.00;99959.91;4901605;29;20036;-70
2021/08/06 06:58:55;;;;;;;18.08;10.70;;;;;;;28.47;100.00;99965.25;4902431;29;20029;-70
2021/08/06 07:01:41;;;;;;;17.75;10.63;;;;;;;28.84;100.00;99969.34;4902278;29;20084;-70
2021/08/06 07:04:28;;;;;;;16.13;10.30;;;;;;;28.19;100.00;99977.13;4901656;29;20024;-70
2021/08/06 07:07:14;;;;;;;30.08;10.65;;;;;;;28.17;100.00;99980.00;4901435;29;20033;-69
2021/08/06 07:10:00;;;;;;;18.38;10.57;;;;;;;28.11;100.00;99985.13;4901258;29;20033;-70
2021/08/06 07:12:46;;;;;;;17.85;9.93;;;;;;;28.14;100.00;99988.38;4900797;29;20063;-69
2021/08/06 07:15:32;;;;;;;18.23;9.45;;;;;;;27.86;100.00;99981.38;4902164;29;20347;-72
2021/08/06 07:18:18;;;;;;;17.45;9.75;;;;;;;27.91;100.00;99987.16;4902237;29;20504;-72
2021/08/06 07:21:05;;;;;;;18.02;8.80;;;;;;;28.22;100.00;99988.44;4902045;29;20064;-72
2021/08/06 07:23:51;;;;;;;14.13;8.95;;;;;;;28.06;100.00;99993.69;4902367;29;20040;-72
2021/08/06 07:26:37;;;;;;;19.98;9.02;;;;;;;28.55;100.00;99997.63;4900543;29;20064;-72
2021/08/06 07:29:23;;;;;;;15.07;8.70;;;;;;;28.05;100.00;100000.09;4902208;29;20478;-72
2021/08/06 07:32:09;;;;;;;19.65;8.35;;;;;;;27.96;100.00;100001.00;4902874;29;20351;-73
2021/08/06 07:34:56;;;;;;;14.63;7.75;;;;;;;27.83;100.00;99999.69;4902804;29;20029;-71
2021/08/06 07:37:42;;;;;;;15.95;6.90;;;;;;;28.21;100.00;100004.75;4902734;29;20037;-71
2021/08/06 07:40:28;;;;;;;16.75;6.30;;;;;;;28.07;100.00;100000.78;4902648;29;20028;-72
2021/08/06 07:43:17;;;;;;;11.15;6.03;;;;;;;28.29;100.00;100005.66;4902964;29;20036;-71
2021/08/06 07:46:03;;;;;;;16.25;6.13;;;;;;;28.36;100.00;100014.00;4901001;29;20024;-70
2021/08/06 07:48:48;;;;;;;13.52;5.75;;;;;;;28.43;100.00;100024.00;4901961;29;20379;-70
2021/08/06 07:51:36;;;;;;;20.58;5.53;;;;;;;28.78;98.30;100018.53;4902445;29;20039;-72
2021/08/06 07:54:22;;;;;;;10.13;5.63;;;;;;;28.63;99.19;100013.88;4902395;29;20350;-72
2021/08/06 07:57:08;;;;;;;20.63;5.10;;;;;;;28.74;98.60;100019.88;4902535;29;20025;-72
2021/08/06 07:59:54;;;;;;;9.23;4.15;;;;;;;28.58;96.23;100022.44;4901659;29;20024;-72
2021/08/06 08:02:43;;;;;;;8.43;4.15;;;;;;;28.34;96.60;100019.53;4901289;29;20439;-71
2021/08/06 08:05:29;;;;;;;7.35;3.80;;;;;;;28.01;98.87;100030.16;4901078;29;20127;-72
2021/08/06 08:08:14;;;;;;;7.82;4.07;;;;;;;27.96;100.00;100027.09;4900385;29;20024;-72
2021/08/06 08:11:00;;;;;;;5.50;4.05;;;;;;;27.47;100.00;100044.53;4901321;29;20100;-71
2021/08/06 08:13:46;;;;;;;9.82;4.72;;;;;;;27.42;100.00;100044.13;4901057;29;20029;-72
2021/08/06 08:16:32;;;;;;;6.78;4.53;;;;;;;27.58;100.00;100047.00;4900686;29;20047;-71
2021/08/06 08:19:18;;;;;;;8.85;4.60;;;;;;;27.27;100.00;100053.69;4900970;29;20024;-72
2021/08/06 08:22:04;;;;;;;14.18;5.05;;;;;;;26.92;100.00;100056.19;4900722;29;20119;-71
2021/08/06 08:24:50;;;;;;;6.88;4.72;;;;;;;26.76;100.00;100053.28;4901994;29;20036;-69
2021/08/06 08:27:36;;;;;;;9.93;4.88;;;;;;;26.40;100.00;100046.78;4900118;29;20370;-71
2021/08/06 08:30:22;;;;;;;7.45;4.53;;;;;;;26.60;100.00;100059.22;4900863;29;20035;-71
2021/08/06 08:33:08;;;;;;;14.25;5.25;;;;;;;26.72;100.00;100058.06;4900068;29;20096;-71
2021/08/06 08:36:00;;;;;;;15.25;4.68;;;;;;;26.32;100.00;100052.00;4901305;29;20059;-71
2021/08/06 08:38:46;;;;;;;8.35;4.45;;;;;;;26.44;100.00;100052.72;4902331;29;20434;-71
2021/08/06 08:41:33;;;;;;;10.15;4.75;;;;;;;26.46;100.00;100050.72;4901434;29;20332;-72
2021/08/06 08:44:22;;;;;;;9.20;4.80;;;;;;;26.84;100.00;100054.22;4901117;29;20028;-70
2021/08/06 08:47:20;;;;;;;11.02;5.43;;;;;;;26.50;100.00;100054.84;4900699;29;20029;-71
2021/08/06 08:50:06;;;;;;;10.25;5.13;;;;;;;26.27;100.00;100051.59;4899838;29;20346;-73
2021/08/06 08:52:52;;;;;;;9.20;5.60;;;;;;;26.49;100.00;100080.00;4900000;29;20056;-70
2021/08/06 08:55:38;;;;;;;10.68;5.45;;;;;;;25.69;100.00;100086.53;4900866;29;20024;-72
2021/08/06 08:58:24;;;;;;;10.50;5.38;;;;;;;26.35;100.00;100077.75;4899678;29;20039;-72
2021/08/06 09:01:10;;;;;;;13.52;5.93;;;;;;;26.14;100.00;100083.28;4900126;29;20028;-71
2021/08/06 09:03:56;;;;;;;10.55;5.63;;;;;;;26.26;100.00;100092.03;4899683;29;20029;-72
2021/08/06 09:06:43;;;;;;;9.75;5.38;;;;;;;26.25;100.00;100101.09;4899976;29;20044;-72
2021/08/06 09:09:29;;;;;;;9.13;5.97;;;;;;;25.88;100.00;100087.41;4899918;29;20037;-73
2021/08/06 09:12:15;;;;;;;8.68;5.15;;;;;;;25.54;100.00;100088.75;4900541;29;20035;-72
2021/08/06 09:15:01;;;;;;;8.95;5.07;;;;;;;25.74;100.00;100089.66;4900141;29;20457;-72
2021/08/06 09:17:48;;;;;;;8.88;5.00;;;;;;;25.04;100.00;100094.16;4900431;29;20036;-72
2021/08/06 09:20:40;;;;;;;12.18;5.45;;;;;;;24.99;100.00;100085.69;4900127;29;20036;-72
2021/08/06 09:23:57;;;;;;;8.98;4.97;;;;;;;24.52;100.00;100089.72;4899863;29;20036;-71
2021/08/06 09:26:44;;;;;;;8.65;5.28;;;;;;;24.34;100.00;100093.09;4899424;29;20029;-71
2021/08/06 09:29:30;;;;;;;9.25;5.05;;;;;;;24.51;100.00;100085.31;4899679;29;20075;-72
2021/08/06 09:32:16;;;;;;;7.75;4.90;;;;;;;24.21;100.00;100079.00;4899263;29;20115;-71
2021/08/06 09:35:03;;;;;;;9.43;5.15;;;;;;;24.44;100.00;100085.97;4899708;29;20024;-71
2021/08/06 09:37:48;;;;;;;7.97;5.07;;;;;;;24.30;100.00;100081.78;4898548;29;20117;-72
2021/08/06 09:40:40;;;;;;;11.90;5.82;;;;;;;24.22;100.00;100092.28;4899011;29;20060;-71
2021/08/06 09:43:26;;;;;;;11.25;6.35;;;;;;;24.03;100.00;100104.63;4900306;29;20094;-70
2021/08/06 09:46:31;;;;;;;12.60;5.97;;;;;;;24.46;100.00;100106.28;4899086;29;20024;-70
2021/08/06 09:49:18;;;;;;;10.43;5.60;;;;;;;24.51;100.00;100109.41;4900328;29;20068;-69
2021/08/06 09:52:04;;;;;;;8.15;5.60;;;;;;;24.16;100.00;100119.56;4899605;29;20370;-69
2021/08/06 09:54:51;;;;;;;8.25;5.43;;;;;;;24.30;100.00;100127.28;4899898;29;20032;-70
2021/08/06 09:57:45;;;;;;;11.35;5.57;;;;;;;23.89;100.00;100118.25;4898799;29;20039;-71
2021/08/06 10:00:32;;;;;;;13.68;7.22;;;;;;;23.73;100.00;100094.56;4898970;29;20037;-71
2021/08/06 10:03:27;;;;;;;15.65;7.22;;;;;;;23.47;100.00;100103.00;4898654;29;20107;-70
2021/08/06 10:06:21;;;;;;;14.57;7.35;;;;;;;23.20;100.00;100092.69;4899476;29;20032;-69
2021/08/06 10:09:07;;;;;;;11.65;6.43;;;;;;;22.49;100.00;100114.25;4898959;29;20060;-69
2021/08/06 10:11:53;;;;;;;10.98;6.95;;;;;;;22.93;100.00;100095.66;4899662;29;20584;-69
2021/08/06 10:14:39;;;;;;;11.65;6.50;;;;;;;23.24;100.00;100088.78;4899302;29;20044;-69
2021/08/06 10:17:25;;;;;;;11.27;7.53;;;;;;;22.72;100.00;100086.66;4899704;29;20096;-72
2021/08/06 10:20:16;;;;;;;10.55;6.72;;;;;;;22.78;100.00;100088.84;4899360;29;20044;-72
2021/08/06 10:23:01;;;;;;;14.77;6.90;;;;;;;22.84;100.00;100083.03;4899588;29;20043;-72
2021/08/06 10:25:48;;;;;;;11.43;6.82;;;;;;;22.93;100.00;100084.97;4898843;29;20033;-72
2021/08/06 10:28:34;;;;;;;11.90;8.45;;;;;;;22.88;100.00;100081.81;4899280;29;20501;-70
2021/08/06 10:31:22;;;;;;;13.88;10.50;;;;;;;23.15;100.00;100063.59;4899397;29;20335;-70
2021/08/06 10:34:10;;;;;;;15.63;10.40;;;;;;;23.15;100.00;100033.38;4898110;29;20115;-70
2021/08/06 10:36:56;;;;;;;13.73;8.65;;;;;;;23.15;100.00;100012.81;4898027;29;20060;-70
2021/08/06 10:39:43;;;;;;;10.55;8.07;;;;;;;22.82;100.00;100044.03;4898989;29;20033;-69
2021/08/06 10:42:30;;;;;;;10.30;6.82;;;;;;;22.81;100.00;100034.31;4902240;29;20515;-69
2021/08/06 10:45:16;;;;;;;9.10;6.68;;;;;;;22.63;100.00;100049.13;4902542;29;20033;-73
2021/08/06 10:48:01;;;;;;;9.40;7.05;;;;;;;23.23;100.00;100042.50;4902160;29;20049;-70
2021/08/06 10:51:16;;;;;;;8.77;6.60;;;;;;;22.32;100.00;100055.06;4901884;29;20434;-69
2021/08/06 10:54:01;;;;;;;8.93;6.85;;;;;;;22.85;100.00;100057.16;4903117;29;20032;-69
2021/08/06 10:56:47;;;;;;;10.13;7.70;;;;;;;22.93;100.00;100042.22;4901588;29;20084;-69
2021/08/06 10:59:40;;;;;;;10.73;7.15;;;;;;;22.85;100.00;100047.34;4902428;29;20486;-73
2021/08/06 11:02:40;;;;;;;10.63;6.93;;;;;;;22.96;100.00;100036.66;4901952;29;20103;-73
2021/08/06 11:05:34;;;;;;;11.68;6.55;;;;;;;22.84;100.00;100020.72;4902716;29;20033;-72
2021/08/06 11:08:46;;;;;;;9.95;6.70;;;;;;;23.25;100.00;100034.34;4902075;29;20347;-72
2021/08/06 11:11:56;;;;;;;8.05;6.20;;;;;;;23.00;100.00;100050.63;4902379;29;20036;-72
2021/08/06 11:14:41;;;;;;;7.53;5.95;;;;;;;23.31;100.00;100050.75;4901035;29;20476;-72
2021/08/06 11:17:41;;;;;;;11.27;6.57;;;;;;;23.55;100.00;100037.25;4901743;29;20067;-72
2021/08/06 11:20:27;;;;;;;11.35;6.53;;;;;;;24.21;100.00;100022.78;4901876;29;20091;-72
2021/08/06 11:23:19;;;;;;;8.65;6.10;;;;;;;24.44;100.00;100022.56;4902142;29;20029;-73
2021/08/06 11:26:13;;;;;;;12.70;6.10;;;;;;;24.63;100.00;100021.84;4901232;29;20175;-72
2021/08/06 11:29:11;;;;;;;7.25;5.70;;;;;;;24.94;100.00;100029.78;4902027;29;20029;-72
2021/08/06 11:32:15;;;;;;;8.95;5.90;;;;;;;25.16;100.00;100015.34;4901644;29;20464;-72
2021/08/06 11:35:03;;;;;;;7.07;5.25;;;;;;;25.19;100.00;100002.50;4901827;29;20422;-72
2021/08/06 11:37:56;;;;;;;8.18;5.60;;;;;;;25.71;100.00;100004.91;4901428;29;20064;-71
2021/08/06 11:40:50;;;;;;;6.32;4.80;;;;;;;25.14;100.00;99998.53;4900886;29;20156;-72
2021/08/06 11:43:39;;;;;;;8.90;4.95;;;;;;;25.43;100.00;100000.34;4901434;29;20044;-72
2021/08/06 11:46:25;;;;;;;8.70;5.13;;;;;;;26.01;100.00;99998.59;4901610;29;20032;-72
2021/08/06 11:49:11;;;;;;;9.00;5.47;;;;;;;26.11;100.00;99996.75;4901368;29;20059;-72
2021/08/06 11:51:58;;;;;;;10.40;4.60;;;;;;;26.04;100.00;99992.97;4900936;29;20021;-73
2021/08/06 11:54:53;;;;;;;8.38;4.82;;;;;;;25.71;100.00;99982.59;4900828;29;20033;-73
2021/08/06 11:57:53;;;;;;;10.52;5.05;;;;;;;27.02;100.00;99973.66;4901191;29;20028;-72
2021/08/06 12:00:42;;;;;;;6.05;5.18;;;;;;;26.39;100.00;99964.50;4900967;29;20048;-72
2021/08/06 12:03:28;;;;;;;8.68;5.10;;;;;;;27.60;100.00;99960.75;4901085;29;20374;-72
2021/08/06 12:06:16;;;;;;;7.75;5.00;;;;;;;28.43;100.00;99956.63;4900459;29;20071;-72
2021/08/06 12:09:06;;;;;;;7.00;4.93;;;;;;;28.95;100.00;99946.63;4900927;29;20025;-72
2021/08/06 12:11:52;;;;;;;5.47;4.93;;;;;;;28.76;100.00;99955.00;4901470;29;20418;-73
2021/08/06 12:14:38;;;;;;;5.55;4.80;;;;;;;27.45;100.00;99953.16;4901228;29;20111;-72
2021/08/06 12:17:24;;;;;;;7.53;5.00;;;;;;;28.47;100.00;99954.47;4901458;29;20378;-72
2021/08/06 12:20:10;;;;;;;8.98;4.72;;;;;;;27.96;100.00;99940.94;4900140;29;20032;-72
2021/08/06 12:22:56;;;;;;;6.30;4.70;;;;;;;28.27;100.00;99943.00;4900115;29;20032;-72
2021/08/06 12:26:15;;;;;;;5.03;4.43;;;;;;;27.91;100.00;99941.38;4900980;29;20039;-71
2021/08/06 12:29:27;;;;;;;5.05;4.10;;;;;;;29.32;100.00;99926.41;4900114;29;20033;-72
2021/08/06 12:32:14;;;;;;;5.22;4.50;;;;;;;28.41;100.00;99930.81;4899870;29;20036;-71
2021/08/06 12:35:00;;;;;;;8.05;4.50;;;;;;;29.29;100.00;99926.72;4900041;29;20039;-72
2021/08/06 12:37:46;;;;;;;5.00;4.20;;;;;;;28.79;100.00;99933.94;4900715;29;20040;-72
2021/08/06 12:40:43;;;;;;;6.43;4.38;;;;;;;28.31;100.00;99936.31;4900460;29;20024;-72
2021/08/06 12:43:28;;;;;;;7.22;3.92;;;;;;;28.62;100.00;99932.16;4900166;29;20048;-71
2021/08/06 12:46:16;;;;;;;9.35;4.13;;;;;;;28.24;100.00;99932.53;4900254;29;20024;-71